sensor_id;sensor_type;location;lat;lon;timestamp;P1;durP1;ratioP1;P2;durP2;ratioP2
45944;SDS011;31655;48.972;10.686;2023-02-21T00:02:15;7.60;;;3.37;;
45944;SDS011;31655;48.972;10.686;2023-02-21T00:04:59;6.68;;;3.38;;
45944;SDS011;31655;48.972;10.686;2023-02-21T00:07:44;17.35;;;3.97;;
45944;SDS011;31655;48.972;10.686;2023-02-21T00:10:30;7.07;;;3.00;;
45944;SDS011;31655;48.972;10.686;2023-02-21T00:13:14;5.28;;;3.55;;
45944;SDS011;31655;48.972;10.686;2023-02-21T00:15:59;12.45;;;4.22;;
45944;SDS011;31655;48.972;10.686;2023-02-21T00:18:44;9.52;;;3.17;;
45944;SDS011;31655;48.972;10.686;2023-02-21T00:24:50;7.95;;;3.97;;
45944;SDS011;31655;48.972;10.686;2023-02-21T00:27:35;7.23;;;4.87;;
45944;SDS011;31655;48.972;10.686;2023-02-21T00:30:19;11.05;;;3.70;;
45944;SDS011;31655;48.972;10.686;2023-02-21T00:33:04;7.70;;;4.27;;
45944;SDS011;31655;48.972;10.686;2023-02-21T00:35:48;10.05;;;3.55;;
45944;SDS011;31655;48.972;10.686;2023-02-21T00:38:35;8.65;;;3.83;;
45944;SDS011;31655;48.972;10.686;2023-02-21T00:41:21;9.00;;;3.70;;
45944;SDS011;31655;48.972;10.686;2023-02-21T00:44:06;9.95;;;3.45;;
45944;SDS011;31655;48.972;10.686;2023-02-21T00:46:50;7.23;;;5.83;;
45944;SDS011;31655;48.972;10.686;2023-02-21T00:49:35;7.82;;;3.17;;
45944;SDS011;31655;48.972;10.686;2023-02-21T00:52:20;11.97;;;5.73;;
45944;SDS011;31655;48.972;10.686;2023-02-21T00:55:04;8.10;;;3.60;;
45944;SDS011;31655;48.972;10.686;2023-02-21T00:57:49;10.27;;;4.45;;
45944;SDS011;31655;48.972;10.686;2023-02-21T01:00:35;7.50;;;3.47;;
45944;SDS011;31655;48.972;10.686;2023-02-21T01:03:20;14.60;;;3.75;;
45944;SDS011;31655;48.972;10.686;2023-02-21T01:06:07;10.85;;;4.40;;
45944;SDS011;31655;48.972;10.686;2023-02-21T01:08:54;13.23;;;3.78;;
45944;SDS011;31655;48.972;10.686;2023-02-21T01:11:38;7.40;;;3.60;;
45944;SDS011;31655;48.972;10.686;2023-02-21T01:14:23;10.20;;;4.43;;
45944;SDS011;31655;48.972;10.686;2023-02-21T01:17:08;5.60;;;3.17;;
45944;SDS011;31655;48.972;10.686;2023-02-21T01:19:56;6.70;;;3.40;;
45944;SDS011;31655;48.972;10.686;2023-02-21T01:22:44;5.38;;;3.30;;
45944;SDS011;31655;48.972;10.686;2023-02-21T01:25:29;8.68;;;4.05;;
45944;SDS011;31655;48.972;10.686;2023-02-21T01:28:17;9.20;;;3.80;;
45944;SDS011;31655;48.972;10.686;2023-02-21T01:31:01;6.18;;;3.75;;
45944;SDS011;31655;48.972;10.686;2023-02-21T01:33:47;7.60;;;4.07;;
45944;SDS011;31655;48.972;10.686;2023-02-21T01:36:32;5.32;;;3.00;;
45944;SDS011;31655;48.972;10.686;2023-02-21T01:39:19;6.35;;;3.17;;
45944;SDS011;31655;48.972;10.686;2023-02-21T01:42:08;9.20;;;3.25;;
45944;SDS011;31655;48.972;10.686;2023-02-21T01:48:06;5.82;;;3.35;;
45944;SDS011;31655;48.972;10.686;2023-02-21T01:53:35;9.25;;;3.50;;
45944;SDS011;31655;48.972;10.686;2023-02-21T01:56:21;7.75;;;4.55;;
45944;SDS011;31655;48.972;10.686;2023-02-21T01:59:06;12.57;;;3.83;;
45944;SDS011;31655;48.972;10.686;2023-02-21T02:01:52;7.85;;;3.40;;
45944;SDS011;31655;48.972;10.686;2023-02-21T02:04:43;8.35;;;3.60;;
45944;SDS011;31655;48.972;10.686;2023-02-21T02:07:29;6.95;;;3.33;;
45944;SDS011;31655;48.972;10.686;2023-02-21T02:10:14;10.55;;;3.50;;
45944;SDS011;31655;48.972;10.686;2023-02-21T02:13:07;8.90;;;3.65;;
45944;SDS011;31655;48.972;10.686;2023-02-21T02:18:38;8.23;;;3.97;;
45944;SDS011;31655;48.972;10.686;2023-02-21T02:23:49;9.32;;;4.28;;
45944;SDS011;31655;48.972;10.686;2023-02-21T02:39:48;11.98;;;4.65;;
45944;SDS011;31655;48.972;10.686;2023-02-21T02:42:24;7.20;;;3.70;;
45944;SDS011;31655;48.972;10.686;2023-02-21T02:45:25;7.20;;;3.72;;
45944;SDS011;31655;48.972;10.686;2023-02-21T02:48:02;7.13;;;3.72;;
45944;SDS011;31655;48.972;10.686;2023-02-21T02:50:36;7.75;;;3.88;;
45944;SDS011;31655;48.972;10.686;2023-02-21T02:53:04;11.38;;;3.50;;
45944;SDS011;31655;48.972;10.686;2023-02-21T02:55:38;7.80;;;3.60;;
45944;SDS011;31655;48.972;10.686;2023-02-21T02:58:12;7.43;;;3.45;;
45944;SDS011;31655;48.972;10.686;2023-02-21T03:00:39;9.20;;;3.92;;
45944;SDS011;31655;48.972;10.686;2023-02-21T03:03:14;8.07;;;3.95;;
45944;SDS011;31655;48.972;10.686;2023-02-21T03:08:26;7.97;;;4.15;;
45944;SDS011;31655;48.972;10.686;2023-02-21T03:10:57;5.05;;;3.75;;
45944;SDS011;31655;48.972;10.686;2023-02-21T03:16:23;4.20;;;3.22;;
45944;SDS011;31655;48.972;10.686;2023-02-21T03:19:16;10.25;;;4.32;;
45944;SDS011;31655;48.972;10.686;2023-02-21T03:24:22;9.32;;;4.93;;
45944;SDS011;31655;48.972;10.686;2023-02-21T03:26:51;7.85;;;4.22;;
45944;SDS011;31655;48.972;10.686;2023-02-21T03:29:21;9.38;;;4.55;;
45944;SDS011;31655;48.972;10.686;2023-02-21T03:32:07;5.72;;;3.83;;
45944;SDS011;31655;48.972;10.686;2023-02-21T03:34:43;8.73;;;3.92;;
45944;SDS011;31655;48.972;10.686;2023-02-21T03:37:18;9.80;;;4.28;;
45944;SDS011;31655;48.972;10.686;2023-02-21T03:40:05;9.38;;;3.97;;
45944;SDS011;31655;48.972;10.686;2023-02-21T03:42:32;5.75;;;3.60;;
45944;SDS011;31655;48.972;10.686;2023-02-21T03:44:58;6.43;;;3.67;;
45944;SDS011;31655;48.972;10.686;2023-02-21T03:47:24;5.30;;;3.95;;
45944;SDS011;31655;48.972;10.686;2023-02-21T03:49:50;7.43;;;4.43;;
45944;SDS011;31655;48.972;10.686;2023-02-21T03:52:16;8.57;;;3.85;;
45944;SDS011;31655;48.972;10.686;2023-02-21T03:54:42;9.40;;;4.28;;
45944;SDS011;31655;48.972;10.686;2023-02-21T03:57:10;10.10;;;4.75;;
45944;SDS011;31655;48.972;10.686;2023-02-21T03:59:39;10.45;;;4.38;;
45944;SDS011;31655;48.972;10.686;2023-02-21T04:02:05;7.20;;;4.05;;
45944;SDS011;31655;48.972;10.686;2023-02-21T04:04:37;8.07;;;4.07;;
45944;SDS011;31655;48.972;10.686;2023-02-21T04:07:04;7.95;;;3.92;;
45944;SDS011;31655;48.972;10.686;2023-02-21T04:09:30;10.23;;;4.07;;
45944;SDS011;31655;48.972;10.686;2023-02-21T04:11:59;5.57;;;3.78;;
45944;SDS011;31655;48.972;10.686;2023-02-21T04:14:25;8.00;;;3.75;;
45944;SDS011;31655;48.972;10.686;2023-02-21T04:16:52;8.38;;;4.47;;
45944;SDS011;31655;48.972;10.686;2023-02-21T04:19:21;8.30;;;5.32;;
45944;SDS011;31655;48.972;10.686;2023-02-21T04:21:48;11.75;;;4.25;;
45944;SDS011;31655;48.972;10.686;2023-02-21T04:24:14;10.10;;;5.35;;
45944;SDS011;31655;48.972;10.686;2023-02-21T04:26:43;19.23;;;7.53;;
45944;SDS011;31655;48.972;10.686;2023-02-21T04:29:12;9.98;;;4.50;;
45944;SDS011;31655;48.972;10.686;2023-02-21T04:31:47;11.05;;;6.13;;
45944;SDS011;31655;48.972;10.686;2023-02-21T04:34:13;12.85;;;4.55;;
45944;SDS011;31655;48.972;10.686;2023-02-21T04:36:39;8.07;;;4.85;;
45944;SDS011;31655;48.972;10.686;2023-02-21T04:39:07;15.48;;;6.13;;
45944;SDS011;31655;48.972;10.686;2023-02-21T04:41:33;8.45;;;5.05;;
45944;SDS011;31655;48.972;10.686;2023-02-21T04:44:01;10.63;;;5.50;;
45944;SDS011;31655;48.972;10.686;2023-02-21T04:46:28;11.18;;;4.35;;
45944;SDS011;31655;48.972;10.686;2023-02-21T04:48:55;26.02;;;10.15;;
45944;SDS011;31655;48.972;10.686;2023-02-21T04:51:21;51.80;;;16.17;;
45944;SDS011;31655;48.972;10.686;2023-02-21T04:53:48;18.00;;;7.03;;
45944;SDS011;31655;48.972;10.686;2023-02-21T04:56:20;13.65;;;5.50;;
45944;SDS011;31655;48.972;10.686;2023-02-21T04:58:47;15.85;;;6.60;;
45944;SDS011;31655;48.972;10.686;2023-02-21T05:01:17;9.40;;;4.75;;
45944;SDS011;31655;48.972;10.686;2023-02-21T05:03:43;7.28;;;4.03;;
45944;SDS011;31655;48.972;10.686;2023-02-21T05:06:21;11.13;;;4.90;;
45944;SDS011;31655;48.972;10.686;2023-02-21T05:08:47;12.20;;;4.82;;
45944;SDS011;31655;48.972;10.686;2023-02-21T05:11:13;7.25;;;4.22;;
45944;SDS011;31655;48.972;10.686;2023-02-21T05:13:39;6.03;;;3.40;;
45944;SDS011;31655;48.972;10.686;2023-02-21T05:16:06;9.00;;;3.88;;
45944;SDS011;31655;48.972;10.686;2023-02-21T05:18:32;9.23;;;4.03;;
45944;SDS011;31655;48.972;10.686;2023-02-21T05:20:58;10.63;;;4.90;;
45944;SDS011;31655;48.972;10.686;2023-02-21T05:23:24;11.60;;;5.10;;
45944;SDS011;31655;48.972;10.686;2023-02-21T05:26:04;11.35;;;5.93;;
45944;SDS011;31655;48.972;10.686;2023-02-21T05:28:30;7.03;;;4.90;;
45944;SDS011;31655;48.972;10.686;2023-02-21T05:30:57;13.45;;;5.50;;
45944;SDS011;31655;48.972;10.686;2023-02-21T05:33:23;12.15;;;5.25;;
45944;SDS011;31655;48.972;10.686;2023-02-21T05:35:52;8.45;;;4.30;;
45944;SDS011;31655;48.972;10.686;2023-02-21T05:38:18;18.08;;;4.85;;
45944;SDS011;31655;48.972;10.686;2023-02-21T05:40:45;12.40;;;4.80;;
45944;SDS011;31655;48.972;10.686;2023-02-21T05:43:11;7.53;;;4.10;;
45944;SDS011;31655;48.972;10.686;2023-02-21T05:45:39;8.30;;;3.97;;
45944;SDS011;31655;48.972;10.686;2023-02-21T05:48:05;7.38;;;4.00;;
45944;SDS011;31655;48.972;10.686;2023-02-21T05:50:31;9.10;;;4.28;;
45944;SDS011;31655;48.972;10.686;2023-02-21T05:52:59;8.15;;;4.00;;
45944;SDS011;31655;48.972;10.686;2023-02-21T05:55:25;7.68;;;4.63;;
45944;SDS011;31655;48.972;10.686;2023-02-21T05:57:52;8.25;;;3.85;;
45944;SDS011;31655;48.972;10.686;2023-02-21T06:02:49;7.10;;;3.97;;
45944;SDS011;31655;48.972;10.686;2023-02-21T06:05:16;8.98;;;4.18;;
45944;SDS011;31655;48.972;10.686;2023-02-21T06:07:42;9.43;;;3.88;;
45944;SDS011;31655;48.972;10.686;2023-02-21T06:10:08;9.38;;;4.22;;
45944;SDS011;31655;48.972;10.686;2023-02-21T06:12:44;9.02;;;4.53;;
45944;SDS011;31655;48.972;10.686;2023-02-21T06:15:10;7.80;;;3.90;;
45944;SDS011;31655;48.972;10.686;2023-02-21T06:17:37;7.97;;;4.00;;
45944;SDS011;31655;48.972;10.686;2023-02-21T06:20:04;9.20;;;3.72;;
45944;SDS011;31655;48.972;10.686;2023-02-21T06:22:31;11.63;;;3.97;;
45944;SDS011;31655;48.972;10.686;2023-02-21T06:24:57;7.80;;;3.85;;
45944;SDS011;31655;48.972;10.686;2023-02-21T06:27:23;7.93;;;4.18;;
45944;SDS011;31655;48.972;10.686;2023-02-21T06:29:49;6.72;;;3.63;;
45944;SDS011;31655;48.972;10.686;2023-02-21T06:32:17;11.10;;;5.50;;
45944;SDS011;31655;48.972;10.686;2023-02-21T06:34:44;15.30;;;7.40;;
45944;SDS011;31655;48.972;10.686;2023-02-21T06:37:13;17.52;;;8.95;;
45944;SDS011;31655;48.972;10.686;2023-02-21T06:39:39;12.98;;;7.82;;
45944;SDS011;31655;48.972;10.686;2023-02-21T06:42:06;13.63;;;6.53;;
45944;SDS011;31655;48.972;10.686;2023-02-21T06:44:32;14.95;;;5.45;;
45944;SDS011;31655;48.972;10.686;2023-02-21T06:46:59;12.80;;;5.78;;
45944;SDS011;31655;48.972;10.686;2023-02-21T06:49:25;9.38;;;4.30;;
45944;SDS011;31655;48.972;10.686;2023-02-21T06:51:54;7.93;;;3.95;;
45944;SDS011;31655;48.972;10.686;2023-02-21T06:54:20;9.15;;;4.75;;
45944;SDS011;31655;48.972;10.686;2023-02-21T06:56:46;7.25;;;4.45;;
45944;SDS011;31655;48.972;10.686;2023-02-21T06:59:12;9.85;;;3.95;;
45944;SDS011;31655;48.972;10.686;2023-02-21T07:01:38;9.40;;;4.60;;
45944;SDS011;31655;48.972;10.686;2023-02-21T07:04:03;6.55;;;3.63;;
45944;SDS011;31655;48.972;10.686;2023-02-21T07:06:29;7.13;;;3.85;;
45944;SDS011;31655;48.972;10.686;2023-02-21T07:08:57;6.32;;;4.25;;
45944;SDS011;31655;48.972;10.686;2023-02-21T07:11:23;9.07;;;4.22;;
45944;SDS011;31655;48.972;10.686;2023-02-21T07:13:49;5.82;;;3.67;;
45944;SDS011;31655;48.972;10.686;2023-02-21T07:16:16;8.52;;;4.07;;
45944;SDS011;31655;48.972;10.686;2023-02-21T07:18:45;9.07;;;4.40;;
45944;SDS011;31655;48.972;10.686;2023-02-21T07:21:12;8.65;;;4.38;;
45944;SDS011;31655;48.972;10.686;2023-02-21T07:23:38;8.38;;;3.85;;
45944;SDS011;31655;48.972;10.686;2023-02-21T07:26:04;8.57;;;3.45;;
45944;SDS011;31655;48.972;10.686;2023-02-21T07:28:30;5.28;;;3.03;;
45944;SDS011;31655;48.972;10.686;2023-02-21T07:30:56;8.82;;;3.05;;
45944;SDS011;31655;48.972;10.686;2023-02-21T07:33:22;8.32;;;3.60;;
45944;SDS011;31655;48.972;10.686;2023-02-21T07:35:48;7.53;;;4.65;;
45944;SDS011;31655;48.972;10.686;2023-02-21T07:38:20;11.50;;;5.45;;
45944;SDS011;31655;48.972;10.686;2023-02-21T07:40:47;8.60;;;4.28;;
45944;SDS011;31655;48.972;10.686;2023-02-21T07:43:13;9.38;;;3.95;;
45944;SDS011;31655;48.972;10.686;2023-02-21T07:45:39;7.47;;;4.63;;
45944;SDS011;31655;48.972;10.686;2023-02-21T07:48:04;23.42;;;13.23;;
45944;SDS011;31655;48.972;10.686;2023-02-21T07:50:31;13.70;;;8.48;;
45944;SDS011;31655;48.972;10.686;2023-02-21T07:52:56;23.70;;;14.50;;
45944;SDS011;31655;48.972;10.686;2023-02-21T07:55:23;11.98;;;7.03;;
45944;SDS011;31655;48.972;10.686;2023-02-21T07:57:50;6.50;;;3.97;;
45944;SDS011;31655;48.972;10.686;2023-02-21T08:00:16;10.93;;;7.40;;
45944;SDS011;31655;48.972;10.686;2023-02-21T08:02:46;10.82;;;6.30;;
45944;SDS011;31655;48.972;10.686;2023-02-21T08:05:15;13.32;;;5.28;;
45944;SDS011;31655;48.972;10.686;2023-02-21T08:07:42;15.80;;;9.73;;
45944;SDS011;31655;48.972;10.686;2023-02-21T08:10:08;12.32;;;7.82;;
45944;SDS011;31655;48.972;10.686;2023-02-21T08:12:34;6.68;;;3.67;;
45944;SDS011;31655;48.972;10.686;2023-02-21T08:15:00;6.05;;;4.00;;
45944;SDS011;31655;48.972;10.686;2023-02-21T08:17:26;6.28;;;4.13;;
45944;SDS011;31655;48.972;10.686;2023-02-21T08:19:52;9.07;;;5.75;;
45944;SDS011;31655;48.972;10.686;2023-02-21T08:22:18;5.60;;;4.68;;
45944;SDS011;31655;48.972;10.686;2023-02-21T08:24:44;10.95;;;7.18;;
45944;SDS011;31655;48.972;10.686;2023-02-21T08:27:10;10.35;;;5.20;;
45944;SDS011;31655;48.972;10.686;2023-02-21T08:29:36;6.68;;;4.85;;
45944;SDS011;31655;48.972;10.686;2023-02-21T08:32:04;7.80;;;4.82;;
45944;SDS011;31655;48.972;10.686;2023-02-21T08:34:30;6.43;;;3.55;;
45944;SDS011;31655;48.972;10.686;2023-02-21T08:36:56;5.15;;;3.70;;
45944;SDS011;31655;48.972;10.686;2023-02-21T08:39:22;4.38;;;3.40;;
45944;SDS011;31655;48.972;10.686;2023-02-21T08:41:48;8.15;;;4.80;;
45944;SDS011;31655;48.972;10.686;2023-02-21T08:44:17;5.82;;;3.38;;
45944;SDS011;31655;48.972;10.686;2023-02-21T08:46:45;5.93;;;3.58;;
45944;SDS011;31655;48.972;10.686;2023-02-21T08:49:11;4.88;;;2.75;;
45944;SDS011;31655;48.972;10.686;2023-02-21T08:51:37;5.40;;;3.10;;
45944;SDS011;31655;48.972;10.686;2023-02-21T08:54:04;10.32;;;5.80;;
45944;SDS011;31655;48.972;10.686;2023-02-21T08:56:31;8.05;;;4.00;;
45944;SDS011;31655;48.972;10.686;2023-02-21T08:58:58;6.60;;;3.20;;
45944;SDS011;31655;48.972;10.686;2023-02-21T09:01:29;4.95;;;2.95;;
45944;SDS011;31655;48.972;10.686;2023-02-21T09:03:57;7.97;;;3.13;;
45944;SDS011;31655;48.972;10.686;2023-02-21T09:06:22;7.15;;;2.88;;
45944;SDS011;31655;48.972;10.686;2023-02-21T09:08:48;18.55;;;4.20;;
45944;SDS011;31655;48.972;10.686;2023-02-21T09:11:14;6.32;;;2.47;;
45944;SDS011;31655;48.972;10.686;2023-02-21T09:13:40;4.93;;;3.03;;
45944;SDS011;31655;48.972;10.686;2023-02-21T09:16:06;7.10;;;2.78;;
45944;SDS011;31655;48.972;10.686;2023-02-21T09:18:32;6.97;;;3.13;;
45944;SDS011;31655;48.972;10.686;2023-02-21T09:20:58;6.03;;;3.30;;
45944;SDS011;31655;48.972;10.686;2023-02-21T09:23:25;10.07;;;3.83;;
45944;SDS011;31655;48.972;10.686;2023-02-21T09:25:52;5.68;;;3.67;;
45944;SDS011;31655;48.972;10.686;2023-02-21T09:28:19;5.32;;;3.13;;
45944;SDS011;31655;48.972;10.686;2023-02-21T09:30:45;6.88;;;2.80;;
45944;SDS011;31655;48.972;10.686;2023-02-21T09:33:11;8.05;;;3.88;;
45944;SDS011;31655;48.972;10.686;2023-02-21T09:35:37;7.35;;;3.10;;
45944;SDS011;31655;48.972;10.686;2023-02-21T09:38:03;6.47;;;3.13;;
45944;SDS011;31655;48.972;10.686;2023-02-21T09:43:09;7.90;;;3.78;;
45944;SDS011;31655;48.972;10.686;2023-02-21T09:45:39;9.55;;;4.53;;
45944;SDS011;31655;48.972;10.686;2023-02-21T09:48:13;10.48;;;3.38;;
45944;SDS011;31655;48.972;10.686;2023-02-21T09:50:48;7.20;;;3.97;;
45944;SDS011;31655;48.972;10.686;2023-02-21T09:53:24;5.50;;;3.65;;
45944;SDS011;31655;48.972;10.686;2023-02-21T09:55:53;4.55;;;3.53;;
45944;SDS011;31655;48.972;10.686;2023-02-21T09:58:24;5.97;;;3.60;;
45944;SDS011;31655;48.972;10.686;2023-02-21T10:00:50;7.03;;;4.05;;
45944;SDS011;31655;48.972;10.686;2023-02-21T10:08:31;9.18;;;4.38;;
45944;SDS011;31655;48.972;10.686;2023-02-21T10:11:09;8.57;;;3.55;;
45944;SDS011;31655;48.972;10.686;2023-02-21T10:13:48;4.72;;;3.40;;
45944;SDS011;31655;48.972;10.686;2023-02-21T10:16:38;9.75;;;5.18;;
45944;SDS011;31655;48.972;10.686;2023-02-21T10:21:34;9.27;;;4.20;;
45944;SDS011;31655;48.972;10.686;2023-02-21T10:24:09;4.53;;;3.55;;
45944;SDS011;31655;48.972;10.686;2023-02-21T10:26:37;10.95;;;4.32;;
45944;SDS011;31655;48.972;10.686;2023-02-21T10:29:13;6.47;;;4.05;;
45944;SDS011;31655;48.972;10.686;2023-02-21T10:31:47;5.68;;;3.50;;
45944;SDS011;31655;48.972;10.686;2023-02-21T10:34:25;5.85;;;3.47;;
45944;SDS011;31655;48.972;10.686;2023-02-21T10:36:53;5.53;;;2.92;;
45944;SDS011;31655;48.972;10.686;2023-02-21T10:39:23;5.38;;;3.10;;
45944;SDS011;31655;48.972;10.686;2023-02-21T10:41:58;5.80;;;3.33;;
45944;SDS011;31655;48.972;10.686;2023-02-21T10:44:25;5.72;;;3.63;;
45944;SDS011;31655;48.972;10.686;2023-02-21T10:47:07;6.10;;;3.63;;
45944;SDS011;31655;48.972;10.686;2023-02-21T10:52:35;8.10;;;4.43;;
45944;SDS011;31655;48.972;10.686;2023-02-21T10:55:06;6.68;;;3.78;;
45944;SDS011;31655;48.972;10.686;2023-02-21T10:57:41;5.60;;;3.78;;
45944;SDS011;31655;48.972;10.686;2023-02-21T11:00:08;5.70;;;3.38;;
45944;SDS011;31655;48.972;10.686;2023-02-21T11:02:45;5.60;;;3.60;;
45944;SDS011;31655;48.972;10.686;2023-02-21T11:05:19;5.38;;;3.58;;
45944;SDS011;31655;48.972;10.686;2023-02-21T11:10:38;5.20;;;3.17;;
45944;SDS011;31655;48.972;10.686;2023-02-21T11:13:16;5.70;;;3.80;;
45944;SDS011;31655;48.972;10.686;2023-02-21T11:15:45;6.53;;;3.72;;
45944;SDS011;31655;48.972;10.686;2023-02-21T11:18:21;7.03;;;3.75;;
45944;SDS011;31655;48.972;10.686;2023-02-21T11:20:49;5.00;;;3.30;;
45944;SDS011;31655;48.972;10.686;2023-02-21T11:23:21;7.60;;;3.08;;
45944;SDS011;31655;48.972;10.686;2023-02-21T11:25:51;5.05;;;2.97;;
45944;SDS011;31655;48.972;10.686;2023-02-21T11:28:23;6.18;;;3.80;;
45944;SDS011;31655;48.972;10.686;2023-02-21T11:33:20;4.72;;;3.25;;
45944;SDS011;31655;48.972;10.686;2023-02-21T11:35:46;3.78;;;3.30;;
45944;SDS011;31655;48.972;10.686;2023-02-21T11:40:55;5.38;;;3.45;;
45944;SDS011;31655;48.972;10.686;2023-02-21T11:43:25;9.35;;;4.15;;
45944;SDS011;31655;48.972;10.686;2023-02-21T11:48:31;5.32;;;3.55;;
45944;SDS011;31655;48.972;10.686;2023-02-21T11:51:25;7.18;;;3.53;;
45944;SDS011;31655;48.972;10.686;2023-02-21T11:53:57;8.10;;;3.78;;
45944;SDS011;31655;48.972;10.686;2023-02-21T12:10:26;6.68;;;3.42;;
45944;SDS011;31655;48.972;10.686;2023-02-21T12:13:09;8.27;;;4.50;;
45944;SDS011;31655;48.972;10.686;2023-02-21T12:23:57;6.55;;;4.25;;
45944;SDS011;31655;48.972;10.686;2023-02-21T12:27:02;5.00;;;4.05;;
45944;SDS011;31655;48.972;10.686;2023-02-21T12:32:28;10.07;;;4.35;;
45944;SDS011;31655;48.972;10.686;2023-02-21T12:46:51;7.22;;;3.75;;
45944;SDS011;31655;48.972;10.686;2023-02-21T12:52:29;4.50;;;3.55;;
45944;SDS011;31655;48.972;10.686;2023-02-21T13:00:18;8.07;;;4.28;;
45944;SDS011;31655;48.972;10.686;2023-02-21T13:05:36;7.57;;;3.53;;
45944;SDS011;31655;48.972;10.686;2023-02-21T13:08:06;6.35;;;3.20;;
45944;SDS011;31655;48.972;10.686;2023-02-21T13:11:21;4.93;;;3.22;;
45944;SDS011;31655;48.972;10.686;2023-02-21T13:13:33;15.43;;;4.95;;
45944;SDS011;31655;48.972;10.686;2023-02-21T13:15:59;6.82;;;3.45;;
45944;SDS011;31655;48.972;10.686;2023-02-21T13:18:42;7.93;;;3.40;;
45944;SDS011;31655;48.972;10.686;2023-02-21T13:23:53;7.72;;;3.20;;
45944;SDS011;31655;48.972;10.686;2023-02-21T13:26:53;8.85;;;4.10;;
45944;SDS011;31655;48.972;10.686;2023-02-21T13:29:30;5.60;;;3.40;;
45944;SDS011;31655;48.972;10.686;2023-02-21T13:32:02;4.32;;;3.03;;
45944;SDS011;31655;48.972;10.686;2023-02-21T13:34:37;8.73;;;3.70;;
45944;SDS011;31655;48.972;10.686;2023-02-21T13:37:07;5.05;;;3.65;;
45944;SDS011;31655;48.972;10.686;2023-02-21T13:39:43;6.47;;;2.97;;
45944;SDS011;31655;48.972;10.686;2023-02-21T13:42:16;9.03;;;3.07;;
45944;SDS011;31655;48.972;10.686;2023-02-21T13:44:45;3.80;;;2.67;;
45944;SDS011;31655;48.972;10.686;2023-02-21T13:47:20;4.57;;;3.13;;
45944;SDS011;31655;48.972;10.686;2023-02-21T13:49:50;4.47;;;2.88;;
45944;SDS011;31655;48.972;10.686;2023-02-21T13:57:38;7.05;;;3.42;;
45944;SDS011;31655;48.972;10.686;2023-02-21T14:13:53;8.73;;;3.53;;
45944;SDS011;31655;48.972;10.686;2023-02-21T14:24:26;9.45;;;3.65;;
45944;SDS011;31655;48.972;10.686;2023-02-21T14:26:55;5.00;;;2.70;;
45944;SDS011;31655;48.972;10.686;2023-02-21T14:35:19;4.95;;;2.60;;
45944;SDS011;31655;48.972;10.686;2023-02-21T14:38:21;4.95;;;2.78;;
45944;SDS011;31655;48.972;10.686;2023-02-21T14:44:08;4.22;;;2.70;;
45944;SDS011;31655;48.972;10.686;2023-02-21T15:01:04;6.22;;;2.92;;
45944;SDS011;31655;48.972;10.686;2023-02-21T15:03:46;4.90;;;2.10;;
45944;SDS011;31655;48.972;10.686;2023-02-21T15:06:19;4.47;;;2.50;;
45944;SDS011;31655;48.972;10.686;2023-02-21T15:08:49;4.75;;;2.70;;
45944;SDS011;31655;48.972;10.686;2023-02-21T15:11:26;6.35;;;2.90;;
45944;SDS011;31655;48.972;10.686;2023-02-21T15:16:56;8.98;;;3.00;;
45944;SDS011;31655;48.972;10.686;2023-02-21T15:19:34;5.03;;;3.05;;
45944;SDS011;31655;48.972;10.686;2023-02-21T15:24:38;4.85;;;3.22;;
45944;SDS011;31655;48.972;10.686;2023-02-21T15:27:07;5.13;;;3.10;;
45944;SDS011;31655;48.972;10.686;2023-02-21T15:29:37;8.82;;;3.08;;
45944;SDS011;31655;48.972;10.686;2023-02-21T15:32:04;4.72;;;3.38;;
45944;SDS011;31655;48.972;10.686;2023-02-21T15:34:40;6.22;;;3.00;;
45944;SDS011;31655;48.972;10.686;2023-02-21T15:39:49;4.65;;;3.00;;
45944;SDS011;31655;48.972;10.686;2023-02-21T15:42:16;5.45;;;3.25;;
45944;SDS011;31655;48.972;10.686;2023-02-21T15:44:44;5.22;;;2.58;;
45944;SDS011;31655;48.972;10.686;2023-02-21T15:47:16;7.32;;;2.80;;
45944;SDS011;31655;48.972;10.686;2023-02-21T15:49:58;4.43;;;2.95;;
45944;SDS011;31655;48.972;10.686;2023-02-21T15:52:41;5.70;;;2.80;;
45944;SDS011;31655;48.972;10.686;2023-02-21T16:00:28;6.20;;;3.90;;
45944;SDS011;31655;48.972;10.686;2023-02-21T16:05:53;5.70;;;3.15;;
45944;SDS011;31655;48.972;10.686;2023-02-21T16:08:34;8.40;;;2.90;;
45944;SDS011;31655;48.972;10.686;2023-02-21T16:11:03;10.55;;;5.60;;
45944;SDS011;31655;48.972;10.686;2023-02-21T16:13:36;7.18;;;3.75;;
45944;SDS011;31655;48.972;10.686;2023-02-21T16:16:03;4.25;;;2.72;;
45944;SDS011;31655;48.972;10.686;2023-02-21T16:18:29;5.22;;;2.92;;
45944;SDS011;31655;48.972;10.686;2023-02-21T16:20:59;3.58;;;2.85;;
45944;SDS011;31655;48.972;10.686;2023-02-21T16:28:31;9.63;;;4.30;;
45944;SDS011;31655;48.972;10.686;2023-02-21T16:30:58;8.07;;;3.55;;
45944;SDS011;31655;48.972;10.686;2023-02-21T16:33:25;7.50;;;3.40;;
45944;SDS011;31655;48.972;10.686;2023-02-21T16:35:51;6.68;;;3.55;;
45944;SDS011;31655;48.972;10.686;2023-02-21T16:38:18;8.38;;;3.88;;
45944;SDS011;31655;48.972;10.686;2023-02-21T16:40:45;4.03;;;2.90;;
45944;SDS011;31655;48.972;10.686;2023-02-21T16:43:19;9.73;;;4.40;;
45944;SDS011;31655;48.972;10.686;2023-02-21T16:45:46;7.75;;;3.78;;
45944;SDS011;31655;48.972;10.686;2023-02-21T16:48:15;7.68;;;3.60;;
45944;SDS011;31655;48.972;10.686;2023-02-21T16:50:45;4.38;;;2.75;;
45944;SDS011;31655;48.972;10.686;2023-02-21T16:53:12;8.13;;;2.95;;
45944;SDS011;31655;48.972;10.686;2023-02-21T16:55:39;6.45;;;2.95;;
45944;SDS011;31655;48.972;10.686;2023-02-21T16:58:17;3.53;;;2.60;;
45944;SDS011;31655;48.972;10.686;2023-02-21T17:00:50;10.48;;;5.68;;
45944;SDS011;31655;48.972;10.686;2023-02-21T17:03:17;10.88;;;4.70;;
45944;SDS011;31655;48.972;10.686;2023-02-21T17:05:43;7.93;;;4.93;;
45944;SDS011;31655;48.972;10.686;2023-02-21T17:08:09;5.00;;;3.45;;
45944;SDS011;31655;48.972;10.686;2023-02-21T17:10:35;7.53;;;3.75;;
45944;SDS011;31655;48.972;10.686;2023-02-21T17:13:01;7.78;;;4.28;;
45944;SDS011;31655;48.972;10.686;2023-02-21T17:15:27;8.80;;;4.90;;
45944;SDS011;31655;48.972;10.686;2023-02-21T17:17:55;6.05;;;2.70;;
45944;SDS011;31655;48.972;10.686;2023-02-21T17:20:21;4.88;;;2.45;;
45944;SDS011;31655;48.972;10.686;2023-02-21T17:22:47;5.30;;;2.53;;
45944;SDS011;31655;48.972;10.686;2023-02-21T17:25:14;2.50;;;1.50;;
45944;SDS011;31655;48.972;10.686;2023-02-21T17:27:40;6.15;;;1.88;;
45944;SDS011;31655;48.972;10.686;2023-02-21T17:30:06;3.35;;;2.47;;
45944;SDS011;31655;48.972;10.686;2023-02-21T17:32:32;4.47;;;2.25;;
45944;SDS011;31655;48.972;10.686;2023-02-21T17:34:58;5.68;;;2.28;;
45944;SDS011;31655;48.972;10.686;2023-02-21T17:37:24;6.38;;;3.13;;
45944;SDS011;31655;48.972;10.686;2023-02-21T17:39:50;7.43;;;4.22;;
45944;SDS011;31655;48.972;10.686;2023-02-21T17:42:17;9.60;;;3.55;;
45944;SDS011;31655;48.972;10.686;2023-02-21T17:44:43;2.92;;;1.75;;
45944;SDS011;31655;48.972;10.686;2023-02-21T17:47:11;7.03;;;2.17;;
45944;SDS011;31655;48.972;10.686;2023-02-21T17:49:37;3.78;;;2.00;;
45944;SDS011;31655;48.972;10.686;2023-02-21T17:52:03;6.72;;;2.55;;
45944;SDS011;31655;48.972;10.686;2023-02-21T17:54:29;11.18;;;2.72;;
45944;SDS011;31655;48.972;10.686;2023-02-21T17:56:55;5.65;;;2.97;;
45944;SDS011;31655;48.972;10.686;2023-02-21T17:59:21;5.45;;;2.67;;
45944;SDS011;31655;48.972;10.686;2023-02-21T18:01:47;6.35;;;3.22;;
45944;SDS011;31655;48.972;10.686;2023-02-21T18:04:13;4.50;;;2.65;;